Portada
METAR-TAF:

METAR-TAF

Aeroports :

Dundee, Escòcia

latitud: 56-27N, longitud: 003-01W, altitud: 4 m

Observació

L'informe es va fer fa 5 hores i 7 minuts, a les 14:50 UTC
Vent 3 kt del Est/Sud-Est
Temperatura 21°C
Humitat 73%
Pressió 1017 hPa
Visibilitat 10 km o més
Escasses núvols a una alçada de 2000 ft

METAR: EGPN 241450Z 11003KT 9999 FEW020 21/16 Q1017

Hora: 20:57 (19:57 UTC)

Pronòstic

L'informe es va fer fa 8 hores i 56 minuts, a les 11:01 UTC
Pronòstic vàlid del 24 a les 12 UTC al 24 a les 16 UTC
Vent 5 kt del Est/Sud-Est
Visibilitat 10 km o més
Escasses núvols a una alçada de 3000 ft

TAF: EGPN 241101Z 2412/2416 11005KT 9999 FEW030

Observacions i pronòstics meteorològics de més de 4000 aeroports (METAR i TAF).

Les estacions disponibles són els punts grocs i vermells al mapa.

Posi el ratolí al punt desitjat per veure el nom de l'estació.

Feu clic per veure les observacions i els pronòstics meteorològics.

Per canviar el mapa: feu clic els botons verds amb una creu de color negre per apropar; al botó verd amb un guió per allunyar la imatge; o en les fletxes verdes per a mapes adjacents.


METAR-TAF: